createdAt,value
2022-10-08T00:01:38.507Z,14.67
2022-10-08T00:08:41.499Z,14.60
2022-10-08T00:15:43.283Z,14.54
2022-10-08T00:22:45.203Z,14.54
2022-10-08T00:29:47.054Z,14.45
2022-10-08T00:36:51.132Z,14.45
2022-10-08T00:43:54.506Z,14.40
2022-10-08T00:50:56.103Z,14.38
2022-10-08T00:58:01.130Z,14.34
2022-10-08T01:05:04.713Z,14.27
2022-10-08T01:12:11.070Z,14.24
2022-10-08T01:19:38.255Z,14.21
2022-10-08T01:26:50.859Z,14.17
2022-10-08T01:34:00.327Z,14.14
2022-10-08T01:41:04.045Z,14.14
2022-10-08T01:48:08.028Z,14.07
2022-10-08T01:55:15.551Z,14.05
2022-10-08T02:02:21.448Z,14.10
2022-10-08T02:09:25.316Z,14.05
2022-10-08T02:16:28.828Z,14.07
2022-10-08T02:23:42.388Z,14.09
2022-10-08T02:30:48.680Z,14.14
2022-10-08T02:37:56.425Z,14.11
2022-10-08T02:45:00.733Z,14.13
2022-10-08T02:52:02.362Z,14.05
2022-10-08T02:59:04.957Z,14.02
2022-10-08T03:06:08.442Z,14.01
2022-10-08T03:13:12.530Z,14.00
2022-10-08T03:20:14.098Z,14.02
2022-10-08T03:27:15.650Z,14.02
2022-10-08T03:34:17.245Z,14.00
2022-10-08T03:41:18.935Z,14.00
2022-10-08T03:48:21.170Z,14.01
2022-10-08T03:55:22.761Z,14.05
2022-10-08T04:02:24.331Z,14.00
2022-10-08T04:09:26.314Z,13.98
2022-10-08T04:16:27.867Z,14.05
2022-10-08T04:23:31.518Z,14.05
2022-10-08T04:30:33.053Z,14.04
2022-10-08T04:37:34.611Z,14.02
2022-10-08T04:44:36.259Z,13.99
2022-10-08T04:51:37.803Z,13.99
2022-10-08T04:58:39.469Z,13.93
2022-10-08T05:05:41.737Z,13.87
2022-10-08T05:12:43.288Z,13.81
2022-10-08T05:19:44.849Z,13.76
2022-10-08T05:26:58.613Z,13.68
2022-10-08T05:34:00.723Z,13.64
2022-10-08T05:41:23.652Z,13.64
2022-10-08T05:48:25.209Z,13.66
2022-10-08T05:55:27.448Z,13.67
2022-10-08T06:02:29.157Z,13.66
2022-10-08T06:09:30.784Z,13.66
2022-10-08T06:16:32.596Z,13.72
2022-10-08T06:23:34.369Z,13.69
2022-10-08T06:30:36.079Z,13.71
2022-10-08T06:37:37.746Z,13.73
2022-10-08T06:44:39.331Z,13.76
2022-10-08T06:51:40.989Z,13.79
2022-10-08T06:58:44.765Z,13.92
2022-10-08T07:05:46.360Z,14.15
2022-10-08T07:12:49.618Z,14.53
2022-10-08T07:19:52.287Z,14.70
2022-10-08T07:26:53.855Z,14.83
2022-10-08T07:33:56.352Z,15.03
2022-10-08T07:40:57.893Z,15.58
2022-10-08T07:47:59.976Z,16.16
2022-10-08T07:55:01.621Z,16.52
2022-10-08T08:02:03.501Z,17.02
2022-10-08T08:09:05.115Z,17.49
2022-10-08T08:16:08.493Z,18.09
2022-10-08T08:23:10.071Z,18.27
2022-10-08T08:30:13.102Z,18.70
2022-10-08T08:37:14.676Z,19.25
2022-10-08T08:44:16.105Z,19.81
2022-10-08T08:51:17.659Z,20.10
2022-10-08T08:58:41.563Z,20.38
2022-10-08T09:05:44.411Z,20.62
2022-10-08T09:12:46.514Z,20.88
2022-10-08T09:19:48.631Z,21.09
2022-10-08T09:26:50.973Z,21.36
2022-10-08T09:34:03.954Z,21.99
2022-10-08T09:41:18.863Z,22.06
2022-10-08T09:48:30.182Z,21.38
2022-10-08T09:55:35.176Z,20.46
2022-10-08T10:02:37.268Z,20.52
2022-10-08T10:09:47.680Z,20.34
2022-10-08T10:16:50.279Z,20.33
2022-10-08T10:24:09.986Z,20.29
2022-10-08T10:31:31.666Z,20.38
2022-10-08T10:38:38.500Z,20.15
2022-10-08T10:45:46.534Z,19.76
2022-10-08T10:53:03.469Z,19.62
2022-10-08T11:00:08.540Z,19.55
2022-10-08T11:07:30.921Z,19.44
2022-10-08T11:14:44.538Z,19.16
2022-10-08T11:21:55.517Z,19.09
2022-10-08T11:29:18.791Z,18.96
2022-10-08T11:36:37.245Z,18.82
2022-10-08T11:43:59.730Z,18.64
2022-10-08T11:51:19.651Z,18.53
2022-10-08T11:58:25.305Z,18.43
2022-10-08T12:05:26.782Z,18.26
2022-10-08T12:12:50.560Z,18.24
2022-10-08T12:20:17.395Z,18.87
2022-10-08T12:27:29.811Z,19.07
2022-10-08T12:34:31.699Z,19.08
2022-10-08T12:41:42.156Z,19.38
2022-10-08T12:48:51.707Z,19.42
2022-10-08T12:55:55.052Z,19.06
2022-10-08T13:03:07.270Z,19.05
2022-10-08T13:10:20.220Z,19.93
2022-10-08T13:17:32.899Z,20.29
2022-10-08T13:24:38.732Z,20.00
2022-10-08T13:31:57.991Z,20.24
2022-10-08T13:38:59.595Z,20.05
2022-10-08T13:46:01.233Z,19.90
2022-10-08T13:53:02.889Z,19.68
2022-10-08T14:00:05.229Z,19.45
2022-10-08T14:07:08.836Z,19.17
2022-10-08T14:14:14.517Z,19.22
2022-10-08T14:21:16.338Z,19.13
2022-10-08T14:28:17.942Z,19.16
2022-10-08T14:35:19.783Z,19.03
2022-10-08T14:42:21.361Z,18.82
2022-10-08T14:49:23.970Z,18.49
2022-10-08T14:56:25.782Z,17.63
2022-10-08T15:03:27.368Z,17.55
2022-10-08T15:10:29.004Z,17.31
2022-10-08T15:17:30.613Z,17.20
2022-10-08T15:24:32.189Z,17.14
2022-10-08T15:31:33.815Z,16.85
2022-10-08T15:38:35.392Z,16.70
2022-10-08T15:45:46.002Z,16.57
2022-10-08T15:52:47.937Z,16.37
2022-10-08T15:59:49.678Z,16.18
2022-10-08T16:06:51.243Z,16.10
2022-10-08T16:13:54.496Z,16.12
2022-10-08T16:20:56.184Z,16.11
2022-10-08T16:27:59.206Z,16.09
2022-10-08T16:35:00.779Z,16.02
2022-10-08T16:42:02.296Z,15.97
2022-10-08T16:49:05.602Z,15.91
2022-10-08T16:56:07.167Z,15.93
2022-10-08T17:03:08.738Z,15.90
2022-10-08T17:10:10.632Z,15.83
2022-10-08T17:17:12.306Z,15.73
2022-10-08T17:24:14.175Z,15.68
2022-10-08T17:31:20.578Z,15.61
2022-10-08T17:38:22.179Z,15.44
2022-10-08T17:45:23.830Z,15.37
2022-10-08T17:52:25.416Z,15.25
2022-10-08T17:59:27.066Z,15.18
2022-10-08T18:06:29.275Z,15.04
2022-10-08T18:13:30.978Z,14.92
2022-10-08T18:20:32.607Z,14.83
2022-10-08T18:27:34.234Z,14.68
2022-10-08T18:34:35.829Z,14.64
2022-10-08T18:41:41.031Z,14.62
2022-10-08T18:48:42.867Z,14.57
2022-10-08T18:55:49.432Z,14.51
2022-10-08T19:02:54.241Z,14.45
2022-10-08T19:09:55.961Z,14.41
2022-10-08T19:16:57.543Z,14.35
2022-10-08T19:23:59.267Z,14.28
2022-10-08T19:31:00.916Z,14.23
2022-10-08T19:38:02.632Z,14.15
2022-10-08T19:45:04.692Z,14.09
2022-10-08T19:52:06.390Z,14.09
2022-10-08T19:59:09.167Z,14.07
2022-10-08T20:06:12.906Z,14.03
2022-10-08T20:13:14.467Z,13.98
2022-10-08T20:20:32.454Z,13.96
2022-10-08T20:27:34.768Z,13.87
2022-10-08T20:34:37.712Z,13.82
2022-10-08T20:41:39.429Z,13.78
2022-10-08T20:48:41.862Z,13.71
2022-10-08T20:55:43.417Z,13.76
2022-10-08T21:02:45.062Z,13.77
2022-10-08T21:09:47.056Z,13.76
2022-10-08T21:16:48.694Z,13.75
2022-10-08T21:23:50.309Z,13.69
2022-10-08T21:30:54.967Z,13.64
2022-10-08T21:37:56.580Z,13.50
2022-10-08T21:44:58.827Z,13.45
2022-10-08T21:52:00.389Z,13.42
2022-10-08T21:59:02.549Z,13.35
2022-10-08T22:06:04.572Z,13.32
2022-10-08T22:13:06.136Z,13.28
2022-10-08T22:20:08.055Z,13.25
2022-10-08T22:27:09.689Z,13.18
2022-10-08T22:34:11.395Z,13.18
2022-10-08T22:41:15.267Z,13.07
2022-10-08T22:48:16.846Z,13.03
2022-10-08T22:55:18.523Z,13.06
2022-10-08T23:02:20.126Z,13.07
2022-10-08T23:09:21.695Z,13.06
2022-10-08T23:16:23.606Z,13.05
2022-10-08T23:23:25.228Z,13.03
2022-10-08T23:30:42.628Z,12.99
2022-10-08T23:37:47.145Z,12.93
2022-10-08T23:44:48.717Z,12.94
2022-10-08T23:51:50.303Z,12.90
2022-10-08T23:58:51.886Z,12.82
